sensor_id;sensor_type;location;lat;lon;timestamp;pressure;altitude;pressure_sealevel;temperature;humidity
11314;BME280;5712;48.858;9.206;2024-02-28T00:00:14;98115.78;;;7.90;100.00
11314;BME280;5712;48.858;9.206;2024-02-28T00:02:40;98112.34;;;7.90;100.00
11314;BME280;5712;48.858;9.206;2024-02-28T00:05:08;98114.38;;;7.85;100.00
11314;BME280;5712;48.858;9.206;2024-02-28T00:07:35;98106.56;;;7.83;100.00
11314;BME280;5712;48.858;9.206;2024-02-28T00:10:02;98113.16;;;7.90;100.00
11314;BME280;5712;48.858;9.206;2024-02-28T00:12:28;98109.72;;;7.90;100.00
11314;BME280;5712;48.858;9.206;2024-02-28T00:14:55;98120.69;;;7.82;100.00
11314;BME280;5712;48.858;9.206;2024-02-28T00:17:21;98111.69;;;7.86;100.00
11314;BME280;5712;48.858;9.206;2024-02-28T00:19:48;98125.66;;;7.87;100.00
11314;BME280;5712;48.858;9.206;2024-02-28T00:22:16;98114.97;;;7.90;100.00
11314;BME280;5712;48.858;9.206;2024-02-28T00:24:42;98112.88;;;7.81;100.00
11314;BME280;5712;48.858;9.206;2024-02-28T00:27:09;98112.34;;;7.90;99.77
11314;BME280;5712;48.858;9.206;2024-02-28T00:29:35;98111.00;;;7.83;99.75
11314;BME280;5712;48.858;9.206;2024-02-28T00:32:02;98113.06;;;7.78;99.91
11314;BME280;5712;48.858;9.206;2024-02-28T00:34:28;98122.91;;;7.74;100.00
11314;BME280;5712;48.858;9.206;2024-02-28T00:36:54;98120.84;;;7.79;100.00
11314;BME280;5712;48.858;9.206;2024-02-28T00:39:22;98123.03;;;7.87;99.37
11314;BME280;5712;48.858;9.206;2024-02-28T00:41:49;98114.38;;;7.85;99.55
11314;BME280;5712;48.858;9.206;2024-02-28T00:44:15;98116.03;;;7.72;100.00
11314;BME280;5712;48.858;9.206;2024-02-28T00:46:42;98123.06;;;7.71;100.00
11314;BME280;5712;48.858;9.206;2024-02-28T00:49:09;98122.13;;;7.72;100.00
11314;BME280;5712;48.858;9.206;2024-02-28T00:51:35;98125.03;;;7.68;100.00
11314;BME280;5712;48.858;9.206;2024-02-28T00:54:02;98120.16;;;7.76;100.00
11314;BME280;5712;48.858;9.206;2024-02-28T00:56:30;98122.06;;;7.74;100.00
11314;BME280;5712;48.858;9.206;2024-02-28T00:58:57;98122.06;;;7.74;100.00
11314;BME280;5712;48.858;9.206;2024-02-28T01:01:23;98125.78;;;7.70;100.00
11314;BME280;5712;48.858;9.206;2024-02-28T01:03:50;98127.31;;;7.74;100.00
11314;BME280;5712;48.858;9.206;2024-02-28T01:06:16;98129.78;;;7.77;100.00
11314;BME280;5712;48.858;9.206;2024-02-28T01:08:43;98126.66;;;7.70;100.00
11314;BME280;5712;48.858;9.206;2024-02-28T01:11:10;98118.31;;;7.78;100.00
11314;BME280;5712;48.858;9.206;2024-02-28T01:13:38;98128.06;;;7.76;99.96
11314;BME280;5712;48.858;9.206;2024-02-28T01:16:05;98127.50;;;7.71;100.00
11314;BME280;5712;48.858;9.206;2024-02-28T01:18:32;98126.72;;;7.69;100.00
11314;BME280;5712;48.858;9.206;2024-02-28T01:20:58;98134.63;;;7.69;100.00
11314;BME280;5712;48.858;9.206;2024-02-28T01:23:24;98126.78;;;7.83;100.00
11314;BME280;5712;48.858;9.206;2024-02-28T01:25:51;98128.72;;;7.79;99.77
11314;BME280;5712;48.858;9.206;2024-02-28T01:28:17;98126.22;;;7.78;100.00
11314;BME280;5712;48.858;9.206;2024-02-28T01:30:45;98126.09;;;7.79;100.00
11314;BME280;5712;48.858;9.206;2024-02-28T01:33:12;98124.75;;;7.72;100.00
11314;BME280;5712;48.858;9.206;2024-02-28T01:35:39;98129.88;;;7.75;100.00
11314;BME280;5712;48.858;9.206;2024-02-28T01:38:05;98128.19;;;7.74;100.00
11314;BME280;5712;48.858;9.206;2024-02-28T01:40:32;98128.53;;;7.68;100.00
11314;BME280;5712;48.858;9.206;2024-02-28T01:43:02;98129.72;;;7.63;100.00
11314;BME280;5712;48.858;9.206;2024-02-28T01:45:29;98141.25;;;7.60;100.00
11314;BME280;5712;48.858;9.206;2024-02-28T01:47:57;98147.53;;;7.58;100.00
11314;BME280;5712;48.858;9.206;2024-02-28T01:50:24;98150.00;;;7.61;100.00
11314;BME280;5712;48.858;9.206;2024-02-28T01:52:50;98150.28;;;7.56;100.00
11314;BME280;5712;48.858;9.206;2024-02-28T01:55:17;98152.91;;;7.56;100.00
11314;BME280;5712;48.858;9.206;2024-02-28T01:57:46;98149.94;;;7.62;100.00
11314;BME280;5712;48.858;9.206;2024-02-28T02:00:13;98150.00;;;7.61;100.00
11314;BME280;5712;48.858;9.206;2024-02-28T02:02:41;98153.50;;;7.61;100.00
11314;BME280;5712;48.858;9.206;2024-02-28T02:05:10;98156.72;;;7.51;100.00
11314;BME280;5712;48.858;9.206;2024-02-28T02:07:37;98155.59;;;7.55;100.00
11314;BME280;5712;48.858;9.206;2024-02-28T02:10:05;98156.91;;;7.48;100.00
11314;BME280;5712;48.858;9.206;2024-02-28T02:12:34;98161.47;;;7.44;100.00
11314;BME280;5712;48.858;9.206;2024-02-28T02:15:00;98162.50;;;7.42;100.00
11314;BME280;5712;48.858;9.206;2024-02-28T02:17:27;98162.66;;;7.39;100.00
11314;BME280;5712;48.858;9.206;2024-02-28T02:19:53;98173.69;;;7.45;100.00
11314;BME280;5712;48.858;9.206;2024-02-28T02:22:23;98171.88;;;7.46;100.00
11314;BME280;5712;48.858;9.206;2024-02-28T02:24:53;98167.69;;;7.43;100.00
11314;BME280;5712;48.858;9.206;2024-02-28T02:27:20;98171.47;;;7.53;100.00
11314;BME280;5712;48.858;9.206;2024-02-28T02:29:46;98176.72;;;7.53;100.00
11314;BME280;5712;48.858;9.206;2024-02-28T02:32:13;98172.13;;;7.57;100.00
11314;BME280;5712;48.858;9.206;2024-02-28T02:34:39;98187.91;;;7.57;100.00
11314;BME280;5712;48.858;9.206;2024-02-28T02:37:06;98189.53;;;7.44;100.00
11314;BME280;5712;48.858;9.206;2024-02-28T02:39:34;98194.81;;;7.44;100.00
11314;BME280;5712;48.858;9.206;2024-02-28T02:42:01;98198.28;;;7.44;100.00
11314;BME280;5712;48.858;9.206;2024-02-28T02:44:28;98195.22;;;7.52;100.00
11314;BME280;5712;48.858;9.206;2024-02-28T02:46:55;98201.25;;;7.54;100.00
11314;BME280;5712;48.858;9.206;2024-02-28T02:49:21;98213.22;;;7.44;100.00
11314;BME280;5712;48.858;9.206;2024-02-28T02:51:47;98218.66;;;7.41;100.00
11314;BME280;5712;48.858;9.206;2024-02-28T02:54:14;98210.78;;;7.41;100.00
11314;BME280;5712;48.858;9.206;2024-02-28T02:56:41;98225.59;;;7.42;100.00
11314;BME280;5712;48.858;9.206;2024-02-28T02:59:09;98223.38;;;7.34;100.00
11314;BME280;5712;48.858;9.206;2024-02-28T03:01:36;98225.41;;;7.29;100.00
11314;BME280;5712;48.858;9.206;2024-02-28T03:04:03;98229.91;;;7.28;100.00
11314;BME280;5712;48.858;9.206;2024-02-28T03:06:30;98235.69;;;7.34;100.00
11314;BME280;5712;48.858;9.206;2024-02-28T03:08:57;98236.47;;;7.36;100.00
11314;BME280;5712;48.858;9.206;2024-02-28T03:11:24;98223.72;;;7.44;100.00
11314;BME280;5712;48.858;9.206;2024-02-28T03:13:50;98238.41;;;7.32;100.00
11314;BME280;5712;48.858;9.206;2024-02-28T03:16:18;98242.66;;;7.35;100.00
11314;BME280;5712;48.858;9.206;2024-02-28T03:18:44;98247.31;;;7.45;100.00
11314;BME280;5712;48.858;9.206;2024-02-28T03:21:11;98248.25;;;7.29;100.00
11314;BME280;5712;48.858;9.206;2024-02-28T03:23:38;98251.63;;;7.31;100.00
11314;BME280;5712;48.858;9.206;2024-02-28T03:26:04;98258.16;;;7.24;100.00
11314;BME280;5712;48.858;9.206;2024-02-28T03:28:31;98259.09;;;7.23;100.00
11314;BME280;5712;48.858;9.206;2024-02-28T03:30:57;98267.31;;;7.17;100.00
11314;BME280;5712;48.858;9.206;2024-02-28T03:33:25;98271.72;;;7.32;100.00
11314;BME280;5712;48.858;9.206;2024-02-28T03:35:52;98273.16;;;7.22;100.00
11314;BME280;5712;48.858;9.206;2024-02-28T03:38:18;98276.81;;;7.20;100.00
11314;BME280;5712;48.858;9.206;2024-02-28T03:40:45;98285.44;;;7.22;100.00
11314;BME280;5712;48.858;9.206;2024-02-28T03:43:10;98284.59;;;7.21;100.00
11314;BME280;5712;48.858;9.206;2024-02-28T03:45:38;98287.81;;;7.26;100.00
11314;BME280;5712;48.858;9.206;2024-02-28T03:48:05;98288.63;;;7.28;100.00
11314;BME280;5712;48.858;9.206;2024-02-28T03:50:33;98287.06;;;7.24;100.00
11314;BME280;5712;48.858;9.206;2024-02-28T03:53:00;98287.31;;;7.20;100.00
11314;BME280;5712;48.858;9.206;2024-02-28T03:55:26;98296.97;;;7.19;100.00
11314;BME280;5712;48.858;9.206;2024-02-28T03:57:53;98302.22;;;7.19;100.00
11314;BME280;5712;48.858;9.206;2024-02-28T04:00:19;98310.88;;;7.21;100.00
11314;BME280;5712;48.858;9.206;2024-02-28T04:02:46;98307.75;;;7.15;100.00
11314;BME280;5712;48.858;9.206;2024-02-28T04:05:13;98300.00;;;7.12;100.00
11314;BME280;5712;48.858;9.206;2024-02-28T04:07:41;98308.13;;;7.07;100.00
11314;BME280;5712;48.858;9.206;2024-02-28T04:10:08;98313.03;;;6.98;100.00
11314;BME280;5712;48.858;9.206;2024-02-28T04:12:36;98308.44;;;7.01;100.00
11314;BME280;5712;48.858;9.206;2024-02-28T04:15:03;98313.38;;;7.07;100.00
11314;BME280;5712;48.858;9.206;2024-02-28T04:17:30;98309.38;;;7.00;100.00
11314;BME280;5712;48.858;9.206;2024-02-28T04:19:56;98323.72;;;6.95;100.00
11314;BME280;5712;48.858;9.206;2024-02-28T04:22:23;98327.03;;;6.98;100.00
11314;BME280;5712;48.858;9.206;2024-02-28T04:24:51;98328.16;;;6.93;100.00
11314;BME280;5712;48.858;9.206;2024-02-28T04:27:18;98321.47;;;6.87;100.00
11314;BME280;5712;48.858;9.206;2024-02-28T04:29:44;98320.34;;;6.91;100.00
11314;BME280;5712;48.858;9.206;2024-02-28T04:32:11;98325.84;;;6.87;100.00
11314;BME280;5712;48.858;9.206;2024-02-28T04:34:37;98324.53;;;6.95;100.00
11314;BME280;5712;48.858;9.206;2024-02-28T04:37:04;98326.53;;;6.90;100.00
11314;BME280;5712;48.858;9.206;2024-02-28T04:39:30;98331.66;;;6.93;100.00
11314;BME280;5712;48.858;9.206;2024-02-28T04:41:58;98328.09;;;6.94;100.00
11314;BME280;5712;48.858;9.206;2024-02-28T04:44:25;98325.84;;;6.87;100.00
11314;BME280;5712;48.858;9.206;2024-02-28T04:46:51;98338.38;;;6.82;100.00
11314;BME280;5712;48.858;9.206;2024-02-28T04:49:18;98334.28;;;6.76;100.00
11314;BME280;5712;48.858;9.206;2024-02-28T04:51:45;98338.06;;;6.88;100.00
11314;BME280;5712;48.858;9.206;2024-02-28T04:54:11;98340.94;;;6.83;100.00
11314;BME280;5712;48.858;9.206;2024-02-28T04:56:39;98335.75;;;6.82;100.00
11314;BME280;5712;48.858;9.206;2024-02-28T04:59:07;98337.69;;;6.78;100.00
11314;BME280;5712;48.858;9.206;2024-02-28T05:01:34;98334.91;;;6.64;100.00
11314;BME280;5712;48.858;9.206;2024-02-28T05:04:00;98345.28;;;6.67;100.00
11314;BME280;5712;48.858;9.206;2024-02-28T05:06:27;98346.97;;;6.68;100.00
11314;BME280;5712;48.858;9.206;2024-02-28T05:08:53;98350.97;;;6.58;100.00
11314;BME280;5712;48.858;9.206;2024-02-28T05:11:20;98346.19;;;6.66;100.00
11314;BME280;5712;48.858;9.206;2024-02-28T05:13:46;98347.41;;;6.59;100.00
11314;BME280;5712;48.858;9.206;2024-02-28T05:16:14;98344.56;;;6.64;100.00
11314;BME280;5712;48.858;9.206;2024-02-28T05:18:41;98344.03;;;6.57;100.00
11314;BME280;5712;48.858;9.206;2024-02-28T05:21:08;98349.03;;;6.45;100.00
11314;BME280;5712;48.858;9.206;2024-02-28T05:23:34;98349.59;;;6.51;100.00
11314;BME280;5712;48.858;9.206;2024-02-28T05:26:01;98351.91;;;6.57;100.00
11314;BME280;5712;48.858;9.206;2024-02-28T05:28:29;98364.09;;;6.58;100.00
11314;BME280;5712;48.858;9.206;2024-02-28T05:30:56;98356.69;;;6.49;100.00
11314;BME280;5712;48.858;9.206;2024-02-28T05:33:24;98356.06;;;6.44;100.00
11314;BME280;5712;48.858;9.206;2024-02-28T05:35:51;98360.44;;;6.44;100.00
11314;BME280;5712;48.858;9.206;2024-02-28T05:38:17;98362.53;;;6.37;100.00
11314;BME280;5712;48.858;9.206;2024-02-28T05:40:44;98364.53;;;6.32;100.00
11314;BME280;5712;48.858;9.206;2024-02-28T05:43:10;98365.59;;;6.28;100.00
11314;BME280;5712;48.858;9.206;2024-02-28T05:45:36;98369.44;;;6.40;100.00
11314;BME280;5712;48.858;9.206;2024-02-28T05:48:03;98368.69;;;6.36;100.00
11314;BME280;5712;48.858;9.206;2024-02-28T05:50:31;98376.88;;;6.30;100.00
11314;BME280;5712;48.858;9.206;2024-02-28T05:52:58;98378.28;;;6.37;100.00
11314;BME280;5712;48.858;9.206;2024-02-28T05:55:24;98386.00;;;6.40;100.00
11314;BME280;5712;48.858;9.206;2024-02-28T05:57:51;98399.28;;;6.37;100.00
11314;BME280;5712;48.858;9.206;2024-02-28T06:00:18;98391.56;;;6.34;100.00
11314;BME280;5712;48.858;9.206;2024-02-28T06:02:47;98389.41;;;6.42;100.00
11314;BME280;5712;48.858;9.206;2024-02-28T06:05:13;98393.34;;;6.34;100.00
11314;BME280;5712;48.858;9.206;2024-02-28T06:07:41;98399.91;;;6.42;100.00
11314;BME280;5712;48.858;9.206;2024-02-28T06:10:08;98405.78;;;6.47;100.00
11314;BME280;5712;48.858;9.206;2024-02-28T06:12:35;98405.25;;;6.41;100.00
11314;BME280;5712;48.858;9.206;2024-02-28T06:15:02;98407.06;;;6.39;100.00
11314;BME280;5712;48.858;9.206;2024-02-28T06:17:29;98404.38;;;6.40;100.00
11314;BME280;5712;48.858;9.206;2024-02-28T06:19:55;98417.28;;;6.45;100.00
11314;BME280;5712;48.858;9.206;2024-02-28T06:22:22;98413.31;;;6.36;100.00
11314;BME280;5712;48.858;9.206;2024-02-28T06:24:50;98412.56;;;6.34;100.00
11314;BME280;5712;48.858;9.206;2024-02-28T06:27:16;98422.00;;;6.38;100.00
11314;BME280;5712;48.858;9.206;2024-02-28T06:29:43;98420.13;;;6.40;100.00
11314;BME280;5712;48.858;9.206;2024-02-28T06:32:09;98422.13;;;6.35;100.00
11314;BME280;5712;48.858;9.206;2024-02-28T06:34:36;98425.44;;;6.39;100.00
11314;BME280;5712;48.858;9.206;2024-02-28T06:37:02;98432.84;;;6.31;100.00
11314;BME280;5712;48.858;9.206;2024-02-28T06:39:29;98433.06;;;6.26;100.00
11314;BME280;5712;48.858;9.206;2024-02-28T06:41:56;98444.34;;;6.28;100.00
11314;BME280;5712;48.858;9.206;2024-02-28T06:44:23;98440.44;;;6.37;100.00
11314;BME280;5712;48.858;9.206;2024-02-28T06:46:49;98448.38;;;6.35;100.00
11314;BME280;5712;48.858;9.206;2024-02-28T06:49:16;98447.13;;;6.25;100.00
11314;BME280;5712;48.858;9.206;2024-02-28T06:51:43;98447.53;;;6.35;100.00
11314;BME280;5712;48.858;9.206;2024-02-28T06:54:09;98453.63;;;6.35;100.00
11314;BME280;5712;48.858;9.206;2024-02-28T06:56:36;98444.91;;;6.35;100.00
11314;BME280;5712;48.858;9.206;2024-02-28T06:59:04;98454.44;;;6.37;100.00
11314;BME280;5712;48.858;9.206;2024-02-28T07:01:32;98451.81;;;6.37;100.00
11314;BME280;5712;48.858;9.206;2024-02-28T07:03:58;98452.63;;;6.38;100.00
11314;BME280;5712;48.858;9.206;2024-02-28T07:06:25;98456.88;;;6.40;100.00
11314;BME280;5712;48.858;9.206;2024-02-28T07:08:51;98451.97;;;6.51;100.00
11314;BME280;5712;48.858;9.206;2024-02-28T07:11:18;98461.25;;;6.58;100.00
11314;BME280;5712;48.858;9.206;2024-02-28T07:13:44;98458.22;;;6.49;100.00
11314;BME280;5712;48.858;9.206;2024-02-28T07:16:12;98460.97;;;6.46;100.00
11314;BME280;5712;48.858;9.206;2024-02-28T07:18:39;98472.63;;;6.40;100.00
11314;BME280;5712;48.858;9.206;2024-02-28T07:21:05;98470.34;;;6.51;100.00
11314;BME280;5712;48.858;9.206;2024-02-28T07:23:33;98472.50;;;6.43;100.00
11314;BME280;5712;48.858;9.206;2024-02-28T07:25:59;98485.69;;;6.42;100.00
11314;BME280;5712;48.858;9.206;2024-02-28T07:28:26;98477.31;;;6.52;100.00
11314;BME280;5712;48.858;9.206;2024-02-28T07:30:52;98486.69;;;6.39;100.00
11314;BME280;5712;48.858;9.206;2024-02-28T07:33:20;98490.94;;;6.42;100.00
11314;BME280;5712;48.858;9.206;2024-02-28T07:35:47;98492.44;;;6.47;100.00
11314;BME280;5712;48.858;9.206;2024-02-28T07:38:14;98491.50;;;6.48;100.00
11314;BME280;5712;48.858;9.206;2024-02-28T07:40:42;98494.63;;;6.56;100.00
11314;BME280;5712;48.858;9.206;2024-02-28T07:43:09;98491.72;;;6.62;100.00
11314;BME280;5712;48.858;9.206;2024-02-28T07:45:35;98506.13;;;6.54;100.00
11314;BME280;5712;48.858;9.206;2024-02-28T07:48:02;98508.69;;;6.55;100.00
11314;BME280;5712;48.858;9.206;2024-02-28T07:50:30;98523.72;;;6.52;100.00
11314;BME280;5712;48.858;9.206;2024-02-28T07:52:56;98521.53;;;6.61;100.00
11314;BME280;5712;48.858;9.206;2024-02-28T07:55:23;98519.69;;;6.63;100.00
11314;BME280;5712;48.858;9.206;2024-02-28T07:57:51;98525.06;;;6.60;100.00
11314;BME280;5712;48.858;9.206;2024-02-28T08:00:18;98523.28;;;6.61;100.00
11314;BME280;5712;48.858;9.206;2024-02-28T08:02:45;98530.53;;;6.74;100.00
11314;BME280;5712;48.858;9.206;2024-02-28T08:05:13;98528.78;;;6.73;100.00
11314;BME280;5712;48.858;9.206;2024-02-28T08:07:41;98533.56;;;6.65;100.00
11314;BME280;5712;48.858;9.206;2024-02-28T08:10:08;98535.63;;;6.77;100.00
11314;BME280;5712;48.858;9.206;2024-02-28T08:12:37;98534.06;;;6.73;100.00
11314;BME280;5712;48.858;9.206;2024-02-28T08:15:04;98530.94;;;6.65;100.00
11314;BME280;5712;48.858;9.206;2024-02-28T08:17:30;98532.50;;;6.69;100.00
11314;BME280;5712;48.858;9.206;2024-02-28T08:19:57;98538.69;;;6.68;100.00
11314;BME280;5712;48.858;9.206;2024-02-28T08:22:23;98534.06;;;6.73;100.00
11314;BME280;5712;48.858;9.206;2024-02-28T08:24:52;98547.81;;;6.78;100.00
11314;BME280;5712;48.858;9.206;2024-02-28T08:27:18;98535.50;;;6.80;100.00
11314;BME280;5712;48.858;9.206;2024-02-28T08:29:45;98539.75;;;6.83;100.00
11314;BME280;5712;48.858;9.206;2024-02-28T08:32:12;98533.84;;;6.78;100.00
11314;BME280;5712;48.858;9.206;2024-02-28T08:34:43;98540.75;;;6.80;100.00
11314;BME280;5712;48.858;9.206;2024-02-28T08:37:10;98533.63;;;6.82;100.00
11314;BME280;5712;48.858;9.206;2024-02-28T08:39:36;98537.94;;;6.83;100.00
11314;BME280;5712;48.858;9.206;2024-02-28T08:42:05;98541.97;;;6.90;100.00
11314;BME280;5712;48.858;9.206;2024-02-28T08:44:32;98540.59;;;6.83;100.00
11314;BME280;5712;48.858;9.206;2024-02-28T08:46:58;98537.44;;;6.94;100.00
11314;BME280;5712;48.858;9.206;2024-02-28T08:49:25;98534.50;;;7.00;100.00
11314;BME280;5712;48.858;9.206;2024-02-28T08:51:51;98539.69;;;7.01;100.00
11314;BME280;5712;48.858;9.206;2024-02-28T08:54:18;98536.00;;;7.05;100.00
11314;BME280;5712;48.858;9.206;2024-02-28T08:56:44;98532.97;;;7.13;100.00
11314;BME280;5712;48.858;9.206;2024-02-28T08:59:12;98535.41;;;7.17;100.00
11314;BME280;5712;48.858;9.206;2024-02-28T09:01:39;98532.16;;;7.12;100.00
11314;BME280;5712;48.858;9.206;2024-02-28T09:04:06;98538.69;;;7.04;100.00
11314;BME280;5712;48.858;9.206;2024-02-28T09:06:33;98541.66;;;7.15;100.00
11314;BME280;5712;48.858;9.206;2024-02-28T09:08:59;98543.28;;;7.17;100.00
11314;BME280;5712;48.858;9.206;2024-02-28T09:11:26;98540.06;;;7.29;100.00
11314;BME280;5712;48.858;9.206;2024-02-28T09:13:53;98534.81;;;7.29;100.00
11314;BME280;5712;48.858;9.206;2024-02-28T09:16:21;98542.06;;;7.24;100.00
11314;BME280;5712;48.858;9.206;2024-02-28T09:18:47;98548.72;;;7.31;100.00
11314;BME280;5712;48.858;9.206;2024-02-28T09:21:14;98535.50;;;7.32;100.00
11314;BME280;5712;48.858;9.206;2024-02-28T09:23:41;98534.50;;;7.35;100.00
11314;BME280;5712;48.858;9.206;2024-02-28T09:26:08;98537.25;;;7.32;100.00
11314;BME280;5712;48.858;9.206;2024-02-28T09:28:35;98542.66;;;7.46;100.00
11314;BME280;5712;48.858;9.206;2024-02-28T09:31:02;98528.44;;;7.50;99.93
11314;BME280;5712;48.858;9.206;2024-02-28T09:33:30;98527.13;;;7.58;98.08
11314;BME280;5712;48.858;9.206;2024-02-28T09:35:56;98520.81;;;7.62;97.72
11314;BME280;5712;48.858;9.206;2024-02-28T09:38:23;98523.00;;;7.70;97.16
11314;BME280;5712;48.858;9.206;2024-02-28T09:40:50;98521.56;;;7.64;98.18
11314;BME280;5712;48.858;9.206;2024-02-28T09:43:26;98518.06;;;7.64;98.62
11314;BME280;5712;48.858;9.206;2024-02-28T09:45:59;98525.50;;;7.73;97.94
11314;BME280;5712;48.858;9.206;2024-02-28T09:48:27;98523.50;;;7.78;98.14
11314;BME280;5712;48.858;9.206;2024-02-28T09:50:56;98524.78;;;7.86;97.36
11314;BME280;5712;48.858;9.206;2024-02-28T09:53:23;98517.72;;;7.87;95.83
11314;BME280;5712;48.858;9.206;2024-02-28T09:55:50;98528.25;;;7.87;96.13
11314;BME280;5712;48.858;9.206;2024-02-28T09:58:20;98526.75;;;7.83;96.41
11314;BME280;5712;48.858;9.206;2024-02-28T10:00:47;98533.53;;;7.87;96.39
11314;BME280;5712;48.858;9.206;2024-02-28T10:03:17;98537.47;;;7.78;96.32
11314;BME280;5712;48.858;9.206;2024-02-28T10:05:43;98536.53;;;7.79;96.94
11314;BME280;5712;48.858;9.206;2024-02-28T10:08:12;98536.09;;;7.88;97.01
11314;BME280;5712;48.858;9.206;2024-02-28T10:10:44;98526.41;;;7.89;95.03
11314;BME280;5712;48.858;9.206;2024-02-28T10:13:11;98528.13;;;7.90;95.04
11314;BME280;5712;48.858;9.206;2024-02-28T10:15:38;98532.75;;;8.02;94.37
11314;BME280;5712;48.858;9.206;2024-02-28T10:18:05;98527.94;;;7.93;94.00
11314;BME280;5712;48.858;9.206;2024-02-28T10:20:31;98544.13;;;7.85;94.98
11314;BME280;5712;48.858;9.206;2024-02-28T10:22:58;98557.50;;;7.98;96.29
11314;BME280;5712;48.858;9.206;2024-02-28T10:25:26;98550.69;;;7.94;95.17
11314;BME280;5712;48.858;9.206;2024-02-28T10:27:59;98562.00;;;7.96;95.80
11314;BME280;5712;48.858;9.206;2024-02-28T10:30:25;98562.44;;;8.04;96.64
11314;BME280;5712;48.858;9.206;2024-02-28T10:32:52;98560.13;;;8.15;94.71
11314;BME280;5712;48.858;9.206;2024-02-28T10:35:19;98541.06;;;8.10;92.27
11314;BME280;5712;48.858;9.206;2024-02-28T10:37:47;98542.47;;;8.00;91.71
11314;BME280;5712;48.858;9.206;2024-02-28T10:40:16;98555.88;;;7.95;92.32
11314;BME280;5712;48.858;9.206;2024-02-28T10:42:45;98562.16;;;7.93;91.95
11314;BME280;5712;48.858;9.206;2024-02-28T10:45:12;98564.84;;;7.91;92.62
11314;BME280;5712;48.858;9.206;2024-02-28T10:47:39;98581.59;;;7.90;94.59
11314;BME280;5712;48.858;9.206;2024-02-28T10:50:06;98584.84;;;7.95;95.15
11314;BME280;5712;48.858;9.206;2024-02-28T10:52:34;98592.97;;;7.91;96.13
11314;BME280;5712;48.858;9.206;2024-02-28T10:55:08;98606.91;;;7.93;96.91
11314;BME280;5712;48.858;9.206;2024-02-28T10:57:36;98598.69;;;7.99;97.24
11314;BME280;5712;48.858;9.206;2024-02-28T11:00:05;98610.38;;;7.93;98.03
11314;BME280;5712;48.858;9.206;2024-02-28T11:02:32;98607.69;;;7.95;97.40
11314;BME280;5712;48.858;9.206;2024-02-28T11:04:59;98600.81;;;7.92;97.17
11314;BME280;5712;48.858;9.206;2024-02-28T11:07:27;98608.44;;;7.97;97.61
11314;BME280;5712;48.858;9.206;2024-02-28T11:09:53;98604.41;;;8.07;96.80
11314;BME280;5712;48.858;9.206;2024-02-28T11:12:25;98614.03;;;8.08;96.15
11314;BME280;5712;48.858;9.206;2024-02-28T11:14:59;98612.47;;;8.04;96.91
11314;BME280;5712;48.858;9.206;2024-02-28T11:17:30;98617.09;;;7.99;97.63
11314;BME280;5712;48.858;9.206;2024-02-28T11:19:57;98621.28;;;8.03;97.21
11314;BME280;5712;48.858;9.206;2024-02-28T11:22:23;98613.72;;;7.97;96.94
11314;BME280;5712;48.858;9.206;2024-02-28T11:24:54;98618.81;;;8.00;96.57
11314;BME280;5712;48.858;9.206;2024-02-28T11:27:20;98609.28;;;7.97;95.46
11314;BME280;5712;48.858;9.206;2024-02-28T11:29:47;98604.94;;;7.96;93.23
11314;BME280;5712;48.858;9.206;2024-02-28T11:32:15;98610.16;;;7.98;93.60
11314;BME280;5712;48.858;9.206;2024-02-28T11:34:43;98607.06;;;7.90;93.37
11314;BME280;5712;48.858;9.206;2024-02-28T11:37:10;98613.56;;;7.83;94.62
11314;BME280;5712;48.858;9.206;2024-02-28T11:39:37;98618.66;;;7.69;95.11
11314;BME280;5712;48.858;9.206;2024-02-28T11:42:11;98618.03;;;7.64;96.79
11314;BME280;5712;48.858;9.206;2024-02-28T11:44:38;98612.25;;;7.74;96.92
11314;BME280;5712;48.858;9.206;2024-02-28T11:47:05;98617.53;;;7.74;97.14
11314;BME280;5712;48.858;9.206;2024-02-28T11:49:34;98608.38;;;7.81;96.20
11314;BME280;5712;48.858;9.206;2024-02-28T11:52:02;98612.94;;;7.78;96.39
11314;BME280;5712;48.858;9.206;2024-02-28T11:54:29;98620.22;;;7.73;97.06
11314;BME280;5712;48.858;9.206;2024-02-28T11:56:56;98608.63;;;7.77;96.13
11314;BME280;5712;48.858;9.206;2024-02-28T11:59:22;98606.38;;;7.69;95.86
11314;BME280;5712;48.858;9.206;2024-02-28T12:01:49;98609.84;;;7.70;96.01
11314;BME280;5712;48.858;9.206;2024-02-28T12:04:17;98606.31;;;7.71;95.89
11314;BME280;5712;48.858;9.206;2024-02-28T12:06:44;98602.44;;;7.78;96.13
11314;BME280;5712;48.858;9.206;2024-02-28T12:09:12;98604.44;;;7.73;95.58
11314;BME280;5712;48.858;9.206;2024-02-28T12:11:39;98603.66;;;7.71;95.46
11314;BME280;5712;48.858;9.206;2024-02-28T12:14:07;98603.72;;;7.69;95.88
11314;BME280;5712;48.858;9.206;2024-02-28T12:16:36;98598.78;;;7.80;95.29
11314;BME280;5712;48.858;9.206;2024-02-28T12:19:03;98599.00;;;7.76;95.61
11314;BME280;5712;48.858;9.206;2024-02-28T12:21:30;98603.94;;;7.82;96.30
11314;BME280;5712;48.858;9.206;2024-02-28T12:23:56;98601.31;;;7.82;96.01
11314;BME280;5712;48.858;9.206;2024-02-28T12:26:26;98596.16;;;7.80;95.35
11314;BME280;5712;48.858;9.206;2024-02-28T12:28:53;98587.25;;;7.83;95.31
11314;BME280;5712;48.858;9.206;2024-02-28T12:31:19;98598.09;;;7.77;95.80
11314;BME280;5712;48.858;9.206;2024-02-28T12:33:47;98590.09;;;7.78;95.50
11314;BME280;5712;48.858;9.206;2024-02-28T12:36:13;98580.28;;;7.82;95.17
11314;BME280;5712;48.858;9.206;2024-02-28T12:38:40;98585.69;;;7.79;95.30
11314;BME280;5712;48.858;9.206;2024-02-28T12:41:06;98590.50;;;7.71;95.15
11314;BME280;5712;48.858;9.206;2024-02-28T12:43:34;98575.31;;;7.76;93.85
11314;BME280;5712;48.858;9.206;2024-02-28T12:46:01;98572.53;;;7.79;93.00
11314;BME280;5712;48.858;9.206;2024-02-28T12:48:28;98577.75;;;7.80;93.45
11314;BME280;5712;48.858;9.206;2024-02-28T12:50:55;98571.00;;;7.75;93.22
11314;BME280;5712;48.858;9.206;2024-02-28T12:53:21;98585.47;;;7.83;93.66
11314;BME280;5712;48.858;9.206;2024-02-28T12:55:48;98578.13;;;7.73;92.95
11314;BME280;5712;48.858;9.206;2024-02-28T12:58:14;98580.91;;;7.70;94.02
11314;BME280;5712;48.858;9.206;2024-02-28T13:00:42;98570.78;;;7.62;94.05
11314;BME280;5712;48.858;9.206;2024-02-28T13:03:09;98571.47;;;7.66;94.62
11314;BME280;5712;48.858;9.206;2024-02-28T13:05:35;98564.22;;;7.71;92.61
11314;BME280;5712;48.858;9.206;2024-02-28T13:08:03;98550.94;;;7.72;91.63
11314;BME280;5712;48.858;9.206;2024-02-28T13:10:29;98555.38;;;7.72;92.65
11314;BME280;5712;48.858;9.206;2024-02-28T13:12:59;98553.19;;;7.80;91.93